sensor_id;sensor_type;location;lat;lon;timestamp;P1;durP1;ratioP1;P2;durP2;ratioP2
30681;SDS011;17439;48.092;11.842;2023-08-24T00:00:34;5.70;;;4.00;;
30681;SDS011;17439;48.092;11.842;2023-08-24T00:03:03;4.93;;;3.92;;
30681;SDS011;17439;48.092;11.842;2023-08-24T00:05:34;4.53;;;3.65;;
30681;SDS011;17439;48.092;11.842;2023-08-24T00:08:01;5.22;;;4.00;;
30681;SDS011;17439;48.092;11.842;2023-08-24T00:10:27;4.65;;;3.95;;
30681;SDS011;17439;48.092;11.842;2023-08-24T00:12:54;6.22;;;4.60;;
30681;SDS011;17439;48.092;11.842;2023-08-24T00:15:21;6.03;;;4.40;;
30681;SDS011;17439;48.092;11.842;2023-08-24T00:17:48;6.22;;;3.72;;
30681;SDS011;17439;48.092;11.842;2023-08-24T00:20:15;7.60;;;3.95;;
30681;SDS011;17439;48.092;11.842;2023-08-24T00:22:42;5.80;;;4.13;;
30681;SDS011;17439;48.092;11.842;2023-08-24T00:25:09;4.47;;;3.55;;
30681;SDS011;17439;48.092;11.842;2023-08-24T00:27:36;5.50;;;3.38;;
30681;SDS011;17439;48.092;11.842;2023-08-24T00:30:03;6.53;;;4.13;;
30681;SDS011;17439;48.092;11.842;2023-08-24T00:32:34;6.53;;;3.92;;
30681;SDS011;17439;48.092;11.842;2023-08-24T00:35:02;6.65;;;4.50;;
30681;SDS011;17439;48.092;11.842;2023-08-24T00:37:30;5.13;;;4.13;;
30681;SDS011;17439;48.092;11.842;2023-08-24T00:39:57;7.53;;;5.00;;
30681;SDS011;17439;48.092;11.842;2023-08-24T00:42:26;7.15;;;4.72;;
30681;SDS011;17439;48.092;11.842;2023-08-24T00:44:52;6.00;;;4.55;;
30681;SDS011;17439;48.092;11.842;2023-08-24T00:47:19;6.85;;;4.72;;
30681;SDS011;17439;48.092;11.842;2023-08-24T00:49:46;6.70;;;4.60;;
30681;SDS011;17439;48.092;11.842;2023-08-24T00:52:13;4.43;;;3.60;;
30681;SDS011;17439;48.092;11.842;2023-08-24T00:54:40;6.27;;;4.50;;
30681;SDS011;17439;48.092;11.842;2023-08-24T00:57:07;5.30;;;4.35;;
30681;SDS011;17439;48.092;11.842;2023-08-24T00:59:34;7.65;;;4.38;;
30681;SDS011;17439;48.092;11.842;2023-08-24T01:02:02;5.63;;;4.55;;
30681;SDS011;17439;48.092;11.842;2023-08-24T01:04:29;8.38;;;4.50;;
30681;SDS011;17439;48.092;11.842;2023-08-24T01:06:55;4.20;;;3.80;;
30681;SDS011;17439;48.092;11.842;2023-08-24T01:09:23;5.70;;;3.77;;
30681;SDS011;17439;48.092;11.842;2023-08-24T01:17:35;9.55;;;5.03;;
30681;SDS011;17439;48.092;11.842;2023-08-24T01:20:05;7.22;;;4.18;;
30681;SDS011;17439;48.092;11.842;2023-08-24T01:22:36;6.03;;;3.83;;
30681;SDS011;17439;48.092;11.842;2023-08-24T01:25:11;5.07;;;4.15;;
30681;SDS011;17439;48.092;11.842;2023-08-24T01:27:42;5.07;;;3.67;;
30681;SDS011;17439;48.092;11.842;2023-08-24T01:30:10;4.80;;;3.55;;
30681;SDS011;17439;48.092;11.842;2023-08-24T01:32:37;6.85;;;4.32;;
30681;SDS011;17439;48.092;11.842;2023-08-24T01:35:05;4.90;;;4.07;;
30681;SDS011;17439;48.092;11.842;2023-08-24T01:37:36;8.82;;;4.65;;
30681;SDS011;17439;48.092;11.842;2023-08-24T01:40:06;6.57;;;4.18;;
30681;SDS011;17439;48.092;11.842;2023-08-24T01:42:43;6.45;;;4.22;;
30681;SDS011;17439;48.092;11.842;2023-08-24T01:45:17;8.32;;;4.53;;
30681;SDS011;17439;48.092;11.842;2023-08-24T01:47:45;6.15;;;4.35;;
30681;SDS011;17439;48.092;11.842;2023-08-24T01:50:15;5.30;;;3.90;;
30681;SDS011;17439;48.092;11.842;2023-08-24T01:52:42;5.70;;;3.97;;
30681;SDS011;17439;48.092;11.842;2023-08-24T01:55:10;8.65;;;4.97;;
30681;SDS011;17439;48.092;11.842;2023-08-24T02:00:04;7.63;;;4.43;;
30681;SDS011;17439;48.092;11.842;2023-08-24T02:02:38;6.60;;;4.65;;
30681;SDS011;17439;48.092;11.842;2023-08-24T02:05:07;10.30;;;4.32;;
30681;SDS011;17439;48.092;11.842;2023-08-24T02:07:34;4.55;;;3.75;;
30681;SDS011;17439;48.092;11.842;2023-08-24T02:10:02;8.05;;;4.07;;
30681;SDS011;17439;48.092;11.842;2023-08-24T02:12:29;4.57;;;3.70;;
30681;SDS011;17439;48.092;11.842;2023-08-24T02:14:56;3.80;;;3.20;;
30681;SDS011;17439;48.092;11.842;2023-08-24T02:17:26;4.60;;;3.65;;
30681;SDS011;17439;48.092;11.842;2023-08-24T02:19:53;5.55;;;3.88;;
30681;SDS011;17439;48.092;11.842;2023-08-24T02:22:20;7.18;;;4.47;;
30681;SDS011;17439;48.092;11.842;2023-08-24T02:24:46;5.38;;;3.78;;
30681;SDS011;17439;48.092;11.842;2023-08-24T02:27:13;5.70;;;3.92;;
30681;SDS011;17439;48.092;11.842;2023-08-24T02:29:40;6.18;;;4.20;;
30681;SDS011;17439;48.092;11.842;2023-08-24T02:32:06;6.93;;;4.30;;
30681;SDS011;17439;48.092;11.842;2023-08-24T02:34:33;7.57;;;4.07;;
30681;SDS011;17439;48.092;11.842;2023-08-24T02:37:00;4.50;;;3.63;;
30681;SDS011;17439;48.092;11.842;2023-08-24T02:39:26;4.63;;;3.97;;
30681;SDS011;17439;48.092;11.842;2023-08-24T02:41:53;5.90;;;3.80;;
30681;SDS011;17439;48.092;11.842;2023-08-24T02:44:20;7.13;;;4.18;;
30681;SDS011;17439;48.092;11.842;2023-08-24T02:46:47;5.18;;;3.55;;
30681;SDS011;17439;48.092;11.842;2023-08-24T02:49:16;11.25;;;4.72;;
30681;SDS011;17439;48.092;11.842;2023-08-24T02:51:43;5.75;;;3.95;;
30681;SDS011;17439;48.092;11.842;2023-08-24T02:54:10;5.78;;;4.10;;
30681;SDS011;17439;48.092;11.842;2023-08-24T02:56:37;9.45;;;4.55;;
30681;SDS011;17439;48.092;11.842;2023-08-24T02:59:03;6.95;;;3.80;;
30681;SDS011;17439;48.092;11.842;2023-08-24T03:01:30;5.30;;;4.28;;
30681;SDS011;17439;48.092;11.842;2023-08-24T03:03:57;6.20;;;4.22;;
30681;SDS011;17439;48.092;11.842;2023-08-24T03:06:24;6.60;;;4.15;;
30681;SDS011;17439;48.092;11.842;2023-08-24T03:08:51;7.35;;;4.10;;
30681;SDS011;17439;48.092;11.842;2023-08-24T03:11:17;4.97;;;4.47;;
30681;SDS011;17439;48.092;11.842;2023-08-24T03:13:44;7.65;;;3.53;;
30681;SDS011;17439;48.092;11.842;2023-08-24T03:16:11;6.85;;;4.22;;
30681;SDS011;17439;48.092;11.842;2023-08-24T03:18:38;6.25;;;4.10;;
30681;SDS011;17439;48.092;11.842;2023-08-24T03:21:04;4.55;;;3.72;;
30681;SDS011;17439;48.092;11.842;2023-08-24T03:23:33;10.60;;;3.90;;
30681;SDS011;17439;48.092;11.842;2023-08-24T03:26:00;5.23;;;4.17;;
30681;SDS011;17439;48.092;11.842;2023-08-24T03:28:27;5.03;;;3.08;;
30681;SDS011;17439;48.092;11.842;2023-08-24T03:30:53;4.95;;;3.55;;
30681;SDS011;17439;48.092;11.842;2023-08-24T03:33:21;5.55;;;3.80;;
30681;SDS011;17439;48.092;11.842;2023-08-24T03:35:48;5.07;;;4.00;;
30681;SDS011;17439;48.092;11.842;2023-08-24T03:38:15;5.45;;;3.95;;
30681;SDS011;17439;48.092;11.842;2023-08-24T03:40:41;5.60;;;4.60;;
30681;SDS011;17439;48.092;11.842;2023-08-24T03:43:09;5.05;;;3.88;;
30681;SDS011;17439;48.092;11.842;2023-08-24T03:45:36;5.17;;;3.90;;
30681;SDS011;17439;48.092;11.842;2023-08-24T03:48:03;9.43;;;4.20;;
30681;SDS011;17439;48.092;11.842;2023-08-24T03:50:30;6.80;;;4.43;;
30681;SDS011;17439;48.092;11.842;2023-08-24T03:52:57;7.60;;;4.03;;
30681;SDS011;17439;48.092;11.842;2023-08-24T03:55:24;6.10;;;4.38;;
30681;SDS011;17439;48.092;11.842;2023-08-24T03:57:50;5.88;;;4.53;;
30681;SDS011;17439;48.092;11.842;2023-08-24T04:00:18;6.95;;;3.85;;
30681;SDS011;17439;48.092;11.842;2023-08-24T04:02:45;8.10;;;4.00;;
30681;SDS011;17439;48.092;11.842;2023-08-24T04:05:19;4.65;;;3.70;;
30681;SDS011;17439;48.092;11.842;2023-08-24T04:07:47;6.72;;;4.65;;
30681;SDS011;17439;48.092;11.842;2023-08-24T04:10:14;9.05;;;4.63;;
30681;SDS011;17439;48.092;11.842;2023-08-24T04:12:41;5.45;;;4.15;;
30681;SDS011;17439;48.092;11.842;2023-08-24T04:15:09;6.03;;;4.30;;
30681;SDS011;17439;48.092;11.842;2023-08-24T04:17:36;7.93;;;4.13;;
30681;SDS011;17439;48.092;11.842;2023-08-24T04:20:02;7.53;;;3.90;;
30681;SDS011;17439;48.092;11.842;2023-08-24T04:22:29;4.50;;;4.10;;
30681;SDS011;17439;48.092;11.842;2023-08-24T04:24:56;7.47;;;3.72;;
30681;SDS011;17439;48.092;11.842;2023-08-24T04:27:23;6.90;;;3.67;;
30681;SDS011;17439;48.092;11.842;2023-08-24T04:29:49;6.32;;;3.67;;
30681;SDS011;17439;48.092;11.842;2023-08-24T04:32:16;7.82;;;4.10;;
30681;SDS011;17439;48.092;11.842;2023-08-24T04:34:43;7.05;;;4.43;;
30681;SDS011;17439;48.092;11.842;2023-08-24T04:37:09;5.32;;;3.95;;
30681;SDS011;17439;48.092;11.842;2023-08-24T04:39:36;5.90;;;4.20;;
30681;SDS011;17439;48.092;11.842;2023-08-24T04:42:03;4.85;;;3.70;;
30681;SDS011;17439;48.092;11.842;2023-08-24T04:44:30;11.82;;;4.68;;
30681;SDS011;17439;48.092;11.842;2023-08-24T04:46:56;4.60;;;3.85;;
30681;SDS011;17439;48.092;11.842;2023-08-24T04:49:23;4.65;;;4.07;;
30681;SDS011;17439;48.092;11.842;2023-08-24T04:51:50;4.22;;;3.58;;
30681;SDS011;17439;48.092;11.842;2023-08-24T04:54:17;4.75;;;3.70;;
30681;SDS011;17439;48.092;11.842;2023-08-24T04:56:44;6.75;;;5.00;;
30681;SDS011;17439;48.092;11.842;2023-08-24T04:59:11;7.10;;;4.35;;
30681;SDS011;17439;48.092;11.842;2023-08-24T05:01:37;7.88;;;4.82;;
30681;SDS011;17439;48.092;11.842;2023-08-24T05:04:04;6.97;;;4.55;;
30681;SDS011;17439;48.092;11.842;2023-08-24T05:06:30;7.57;;;4.50;;
30681;SDS011;17439;48.092;11.842;2023-08-24T05:08:57;5.65;;;4.45;;
30681;SDS011;17439;48.092;11.842;2023-08-24T05:11:26;8.23;;;4.75;;
30681;SDS011;17439;48.092;11.842;2023-08-24T05:13:54;7.95;;;4.47;;
30681;SDS011;17439;48.092;11.842;2023-08-24T05:16:21;5.93;;;4.90;;
30681;SDS011;17439;48.092;11.842;2023-08-24T05:18:48;7.50;;;4.72;;
30681;SDS011;17439;48.092;11.842;2023-08-24T05:21:15;6.40;;;4.63;;
30681;SDS011;17439;48.092;11.842;2023-08-24T05:23:41;7.70;;;5.00;;
30681;SDS011;17439;48.092;11.842;2023-08-24T05:26:08;6.45;;;4.60;;
30681;SDS011;17439;48.092;11.842;2023-08-24T05:28:35;5.25;;;4.13;;
30681;SDS011;17439;48.092;11.842;2023-08-24T05:31:01;8.27;;;4.70;;
30681;SDS011;17439;48.092;11.842;2023-08-24T05:33:28;7.03;;;5.63;;
30681;SDS011;17439;48.092;11.842;2023-08-24T05:35:55;9.20;;;5.13;;
30681;SDS011;17439;48.092;11.842;2023-08-24T05:38:21;9.20;;;5.00;;
30681;SDS011;17439;48.092;11.842;2023-08-24T05:40:48;9.82;;;5.55;;
30681;SDS011;17439;48.092;11.842;2023-08-24T05:43:15;7.88;;;5.28;;
30681;SDS011;17439;48.092;11.842;2023-08-24T05:45:42;8.02;;;5.13;;
30681;SDS011;17439;48.092;11.842;2023-08-24T05:48:09;6.88;;;4.82;;
30681;SDS011;17439;48.092;11.842;2023-08-24T05:50:35;12.30;;;6.07;;
30681;SDS011;17439;48.092;11.842;2023-08-24T05:53:03;8.77;;;5.65;;
30681;SDS011;17439;48.092;11.842;2023-08-24T05:55:30;10.73;;;5.55;;
30681;SDS011;17439;48.092;11.842;2023-08-24T05:57:57;9.70;;;5.40;;
30681;SDS011;17439;48.092;11.842;2023-08-24T06:00:23;12.10;;;6.03;;
30681;SDS011;17439;48.092;11.842;2023-08-24T06:02:51;7.13;;;5.03;;
30681;SDS011;17439;48.092;11.842;2023-08-24T06:05:18;6.75;;;4.57;;
30681;SDS011;17439;48.092;11.842;2023-08-24T06:07:44;7.55;;;4.40;;
30681;SDS011;17439;48.092;11.842;2023-08-24T06:10:11;7.87;;;4.73;;
30681;SDS011;17439;48.092;11.842;2023-08-24T06:12:38;10.25;;;5.30;;
30681;SDS011;17439;48.092;11.842;2023-08-24T06:15:05;9.63;;;6.30;;
30681;SDS011;17439;48.092;11.842;2023-08-24T06:17:32;6.50;;;4.75;;
30681;SDS011;17439;48.092;11.842;2023-08-24T06:19:59;7.47;;;5.18;;
30681;SDS011;17439;48.092;11.842;2023-08-24T06:22:26;22.40;;;6.88;;
30681;SDS011;17439;48.092;11.842;2023-08-24T06:24:52;11.43;;;6.05;;
30681;SDS011;17439;48.092;11.842;2023-08-24T06:27:19;8.15;;;5.38;;
30681;SDS011;17439;48.092;11.842;2023-08-24T06:29:46;7.78;;;5.97;;
30681;SDS011;17439;48.092;11.842;2023-08-24T06:32:12;7.15;;;5.13;;
30681;SDS011;17439;48.092;11.842;2023-08-24T06:34:39;6.00;;;4.80;;
30681;SDS011;17439;48.092;11.842;2023-08-24T06:37:06;11.02;;;5.28;;
30681;SDS011;17439;48.092;11.842;2023-08-24T06:39:32;9.68;;;5.22;;
30681;SDS011;17439;48.092;11.842;2023-08-24T06:41:59;7.07;;;4.65;;
30681;SDS011;17439;48.092;11.842;2023-08-24T06:44:26;7.57;;;5.32;;
30681;SDS011;17439;48.092;11.842;2023-08-24T06:46:53;7.97;;;5.25;;
30681;SDS011;17439;48.092;11.842;2023-08-24T06:49:19;8.65;;;5.70;;
30681;SDS011;17439;48.092;11.842;2023-08-24T06:51:46;8.10;;;5.22;;
30681;SDS011;17439;48.092;11.842;2023-08-24T06:54:13;11.27;;;5.53;;
30681;SDS011;17439;48.092;11.842;2023-08-24T06:56:40;6.93;;;5.30;;
30681;SDS011;17439;48.092;11.842;2023-08-24T06:59:06;7.75;;;4.85;;
30681;SDS011;17439;48.092;11.842;2023-08-24T07:01:33;7.32;;;4.90;;
30681;SDS011;17439;48.092;11.842;2023-08-24T07:04:00;5.93;;;5.00;;
30681;SDS011;17439;48.092;11.842;2023-08-24T07:06:27;5.22;;;4.68;;
30681;SDS011;17439;48.092;11.842;2023-08-24T07:08:53;7.95;;;5.22;;
30681;SDS011;17439;48.092;11.842;2023-08-24T07:11:20;8.75;;;4.90;;
30681;SDS011;17439;48.092;11.842;2023-08-24T07:13:47;13.02;;;6.32;;
30681;SDS011;17439;48.092;11.842;2023-08-24T07:16:13;7.80;;;4.80;;
30681;SDS011;17439;48.092;11.842;2023-08-24T07:18:40;9.18;;;5.47;;
30681;SDS011;17439;48.092;11.842;2023-08-24T07:21:07;11.30;;;5.53;;
30681;SDS011;17439;48.092;11.842;2023-08-24T07:23:34;6.93;;;5.28;;
30681;SDS011;17439;48.092;11.842;2023-08-24T07:26:01;7.47;;;4.78;;
30681;SDS011;17439;48.092;11.842;2023-08-24T07:28:27;10.63;;;5.22;;
30681;SDS011;17439;48.092;11.842;2023-08-24T07:30:54;9.25;;;6.13;;
30681;SDS011;17439;48.092;11.842;2023-08-24T07:33:21;15.10;;;6.20;;
30681;SDS011;17439;48.092;11.842;2023-08-24T07:35:48;9.10;;;5.83;;
30681;SDS011;17439;48.092;11.842;2023-08-24T07:38:15;8.30;;;5.20;;
30681;SDS011;17439;48.092;11.842;2023-08-24T07:40:41;9.38;;;5.75;;
30681;SDS011;17439;48.092;11.842;2023-08-24T07:43:08;8.07;;;5.18;;
30681;SDS011;17439;48.092;11.842;2023-08-24T07:45:35;8.85;;;5.78;;
30681;SDS011;17439;48.092;11.842;2023-08-24T07:48:02;15.02;;;6.65;;
30681;SDS011;17439;48.092;11.842;2023-08-24T07:50:29;8.13;;;5.30;;
30681;SDS011;17439;48.092;11.842;2023-08-24T07:52:55;14.25;;;6.50;;
30681;SDS011;17439;48.092;11.842;2023-08-24T07:55:23;8.85;;;5.22;;
30681;SDS011;17439;48.092;11.842;2023-08-24T07:57:50;7.47;;;5.43;;
30681;SDS011;17439;48.092;11.842;2023-08-24T08:00:17;14.27;;;6.05;;
30681;SDS011;17439;48.092;11.842;2023-08-24T08:02:44;10.37;;;5.70;;
30681;SDS011;17439;48.092;11.842;2023-08-24T08:05:11;6.68;;;5.65;;
30681;SDS011;17439;48.092;11.842;2023-08-24T08:07:38;7.43;;;6.00;;
30681;SDS011;17439;48.092;11.842;2023-08-24T08:10:04;8.40;;;5.35;;
30681;SDS011;17439;48.092;11.842;2023-08-24T08:12:32;8.60;;;6.07;;
30681;SDS011;17439;48.092;11.842;2023-08-24T08:14:59;6.75;;;5.32;;
30681;SDS011;17439;48.092;11.842;2023-08-24T08:17:26;7.03;;;4.97;;
30681;SDS011;17439;48.092;11.842;2023-08-24T08:19:54;7.13;;;5.10;;
30681;SDS011;17439;48.092;11.842;2023-08-24T08:22:21;11.65;;;5.40;;
30681;SDS011;17439;48.092;11.842;2023-08-24T08:24:48;7.93;;;5.68;;
30681;SDS011;17439;48.092;11.842;2023-08-24T08:27:15;10.70;;;6.97;;
30681;SDS011;17439;48.092;11.842;2023-08-24T08:29:41;8.88;;;5.20;;
30681;SDS011;17439;48.092;11.842;2023-08-24T08:32:08;8.70;;;5.53;;
30681;SDS011;17439;48.092;11.842;2023-08-24T08:34:35;7.78;;;5.63;;
30681;SDS011;17439;48.092;11.842;2023-08-24T08:37:02;8.38;;;6.50;;
30681;SDS011;17439;48.092;11.842;2023-08-24T08:39:29;11.75;;;6.03;;
30681;SDS011;17439;48.092;11.842;2023-08-24T08:41:58;7.55;;;5.50;;
30681;SDS011;17439;48.092;11.842;2023-08-24T08:44:25;13.75;;;5.38;;
30681;SDS011;17439;48.092;11.842;2023-08-24T08:46:57;8.07;;;4.97;;
30681;SDS011;17439;48.092;11.842;2023-08-24T08:49:23;11.87;;;5.47;;
30681;SDS011;17439;48.092;11.842;2023-08-24T08:51:51;9.40;;;6.38;;
30681;SDS011;17439;48.092;11.842;2023-08-24T08:54:18;21.77;;;5.85;;
30681;SDS011;17439;48.092;11.842;2023-08-24T08:56:45;9.10;;;5.38;;
30681;SDS011;17439;48.092;11.842;2023-08-24T08:59:11;12.73;;;6.45;;
30681;SDS011;17439;48.092;11.842;2023-08-24T09:01:40;8.82;;;5.10;;
30681;SDS011;17439;48.092;11.842;2023-08-24T09:04:08;9.15;;;6.15;;
30681;SDS011;17439;48.092;11.842;2023-08-24T09:06:35;7.53;;;5.10;;
30681;SDS011;17439;48.092;11.842;2023-08-24T09:11:31;8.48;;;4.72;;
30681;SDS011;17439;48.092;11.842;2023-08-24T09:13:57;7.32;;;5.57;;
30681;SDS011;17439;48.092;11.842;2023-08-24T09:16:33;11.00;;;6.38;;
30681;SDS011;17439;48.092;11.842;2023-08-24T09:19:01;8.98;;;4.68;;
30681;SDS011;17439;48.092;11.842;2023-08-24T09:21:31;8.43;;;5.70;;
30681;SDS011;17439;48.092;11.842;2023-08-24T09:24:03;8.77;;;5.32;;
30681;SDS011;17439;48.092;11.842;2023-08-24T09:26:31;8.30;;;6.00;;
30681;SDS011;17439;48.092;11.842;2023-08-24T09:29:15;8.07;;;5.55;;
30681;SDS011;17439;48.092;11.842;2023-08-24T09:31:42;7.72;;;4.93;;
30681;SDS011;17439;48.092;11.842;2023-08-24T09:34:10;12.45;;;6.13;;
30681;SDS011;17439;48.092;11.842;2023-08-24T09:36:38;7.35;;;5.20;;
30681;SDS011;17439;48.092;11.842;2023-08-24T09:41:38;6.85;;;5.72;;
30681;SDS011;17439;48.092;11.842;2023-08-24T09:44:05;13.45;;;6.65;;
30681;SDS011;17439;48.092;11.842;2023-08-24T09:48:59;7.03;;;4.87;;
30681;SDS011;17439;48.092;11.842;2023-08-24T09:51:26;12.40;;;6.25;;
30681;SDS011;17439;48.092;11.842;2023-08-24T09:53:54;9.60;;;6.20;;
30681;SDS011;17439;48.092;11.842;2023-08-24T09:56:27;6.68;;;5.10;;
30681;SDS011;17439;48.092;11.842;2023-08-24T09:58:55;8.25;;;6.15;;
30681;SDS011;17439;48.092;11.842;2023-08-24T10:01:26;6.88;;;4.85;;
30681;SDS011;17439;48.092;11.842;2023-08-24T10:03:54;11.10;;;5.88;;
30681;SDS011;17439;48.092;11.842;2023-08-24T10:06:24;10.73;;;6.45;;
30681;SDS011;17439;48.092;11.842;2023-08-24T10:08:54;7.20;;;5.10;;
30681;SDS011;17439;48.092;11.842;2023-08-24T10:11:25;8.23;;;4.93;;
30681;SDS011;17439;48.092;11.842;2023-08-24T10:14:13;8.77;;;5.30;;
30681;SDS011;17439;48.092;11.842;2023-08-24T10:16:45;7.78;;;4.80;;
30681;SDS011;17439;48.092;11.842;2023-08-24T10:19:13;8.23;;;5.43;;
30681;SDS011;17439;48.092;11.842;2023-08-24T10:21:40;9.63;;;5.20;;
30681;SDS011;17439;48.092;11.842;2023-08-24T10:24:08;8.23;;;4.65;;
30681;SDS011;17439;48.092;11.842;2023-08-24T10:26:36;6.22;;;4.80;;
30681;SDS011;17439;48.092;11.842;2023-08-24T10:29:06;7.30;;;5.03;;
30681;SDS011;17439;48.092;11.842;2023-08-24T10:31:33;6.32;;;4.38;;
30681;SDS011;17439;48.092;11.842;2023-08-24T10:34:01;7.57;;;4.97;;
30681;SDS011;17439;48.092;11.842;2023-08-24T10:36:29;8.43;;;5.72;;
30681;SDS011;17439;48.092;11.842;2023-08-24T10:38:55;10.63;;;5.22;;
30681;SDS011;17439;48.092;11.842;2023-08-24T10:41:26;9.82;;;6.35;;
30681;SDS011;17439;48.092;11.842;2023-08-24T10:44:03;7.38;;;4.93;;
30681;SDS011;17439;48.092;11.842;2023-08-24T10:46:34;9.75;;;4.38;;
30681;SDS011;17439;48.092;11.842;2023-08-24T10:49:03;13.98;;;5.40;;
30681;SDS011;17439;48.092;11.842;2023-08-24T10:51:31;8.95;;;5.75;;
30681;SDS011;17439;48.092;11.842;2023-08-24T10:53:58;6.43;;;5.03;;
30681;SDS011;17439;48.092;11.842;2023-08-24T10:56:35;9.38;;;6.30;;
30681;SDS011;17439;48.092;11.842;2023-08-24T10:59:15;7.65;;;4.75;;
30681;SDS011;17439;48.092;11.842;2023-08-24T11:01:54;9.88;;;5.30;;
30681;SDS011;17439;48.092;11.842;2023-08-24T11:04:22;6.13;;;4.47;;
30681;SDS011;17439;48.092;11.842;2023-08-24T11:06:52;6.10;;;4.40;;
30681;SDS011;17439;48.092;11.842;2023-08-24T11:09:23;6.80;;;4.88;;
30681;SDS011;17439;48.092;11.842;2023-08-24T11:12:00;6.68;;;5.00;;
30681;SDS011;17439;48.092;11.842;2023-08-24T11:14:28;10.77;;;5.00;;
30681;SDS011;17439;48.092;11.842;2023-08-24T11:17:01;6.28;;;4.97;;
30681;SDS011;17439;48.092;11.842;2023-08-24T11:19:50;7.63;;;4.75;;
30681;SDS011;17439;48.092;11.842;2023-08-24T11:22:18;9.13;;;5.75;;
30681;SDS011;17439;48.092;11.842;2023-08-24T11:24:45;9.93;;;5.05;;
30681;SDS011;17439;48.092;11.842;2023-08-24T11:27:12;6.90;;;4.63;;
30681;SDS011;17439;48.092;11.842;2023-08-24T11:29:39;9.70;;;4.93;;
30681;SDS011;17439;48.092;11.842;2023-08-24T11:32:05;7.03;;;4.25;;
30681;SDS011;17439;48.092;11.842;2023-08-24T11:34:33;9.73;;;4.90;;
30681;SDS011;17439;48.092;11.842;2023-08-24T11:37:00;7.30;;;4.75;;
30681;SDS011;17439;48.092;11.842;2023-08-24T11:39:28;9.13;;;4.85;;
30681;SDS011;17439;48.092;11.842;2023-08-24T11:41:58;8.13;;;4.30;;
30681;SDS011;17439;48.092;11.842;2023-08-24T11:44:27;6.68;;;4.70;;
30681;SDS011;17439;48.092;11.842;2023-08-24T11:46:55;6.20;;;4.10;;
30681;SDS011;17439;48.092;11.842;2023-08-24T11:49:23;9.18;;;4.35;;
30681;SDS011;17439;48.092;11.842;2023-08-24T11:51:50;12.33;;;4.90;;
30681;SDS011;17439;48.092;11.842;2023-08-24T11:54:20;9.68;;;4.60;;
30681;SDS011;17439;48.092;11.842;2023-08-24T11:56:47;7.22;;;4.13;;
30681;SDS011;17439;48.092;11.842;2023-08-24T11:59:14;6.83;;;4.17;;
30681;SDS011;17439;48.092;11.842;2023-08-24T12:01:41;6.07;;;4.13;;
30681;SDS011;17439;48.092;11.842;2023-08-24T12:06:35;9.38;;;4.43;;
30681;SDS011;17439;48.092;11.842;2023-08-24T12:09:04;8.52;;;4.60;;
30681;SDS011;17439;48.092;11.842;2023-08-24T12:11:35;6.28;;;4.00;;
30681;SDS011;17439;48.092;11.842;2023-08-24T12:14:02;5.68;;;4.38;;
30681;SDS011;17439;48.092;11.842;2023-08-24T12:16:30;7.27;;;4.40;;
30681;SDS011;17439;48.092;11.842;2023-08-24T12:18:59;6.07;;;4.72;;
30681;SDS011;17439;48.092;11.842;2023-08-24T12:21:26;21.83;;;4.97;;
30681;SDS011;17439;48.092;11.842;2023-08-24T12:26:25;6.20;;;4.55;;
30681;SDS011;17439;48.092;11.842;2023-08-24T12:28:53;8.45;;;4.85;;
30681;SDS011;17439;48.092;11.842;2023-08-24T12:31:25;9.98;;;4.43;;
30681;SDS011;17439;48.092;11.842;2023-08-24T12:34:05;8.55;;;4.10;;
30681;SDS011;17439;48.092;11.842;2023-08-24T12:36:33;7.03;;;4.50;;
30681;SDS011;17439;48.092;11.842;2023-08-24T12:39:02;11.32;;;4.47;;
30681;SDS011;17439;48.092;11.842;2023-08-24T12:41:29;12.38;;;4.70;;
30681;SDS011;17439;48.092;11.842;2023-08-24T12:43:56;10.05;;;4.35;;
30681;SDS011;17439;48.092;11.842;2023-08-24T12:46:23;7.10;;;4.60;;
30681;SDS011;17439;48.092;11.842;2023-08-24T12:48:50;12.55;;;5.47;;
30681;SDS011;17439;48.092;11.842;2023-08-24T12:51:21;7.60;;;4.95;;
30681;SDS011;17439;48.092;11.842;2023-08-24T12:53:48;7.73;;;4.20;;
30681;SDS011;17439;48.092;11.842;2023-08-24T12:56:14;6.47;;;4.10;;
30681;SDS011;17439;48.092;11.842;2023-08-24T12:58:41;7.50;;;4.57;;
30681;SDS011;17439;48.092;11.842;2023-08-24T13:01:08;7.05;;;4.38;;
30681;SDS011;17439;48.092;11.842;2023-08-24T13:03:35;7.13;;;4.43;;
30681;SDS011;17439;48.092;11.842;2023-08-24T13:06:01;10.03;;;5.33;;
30681;SDS011;17439;48.092;11.842;2023-08-24T13:08:46;8.80;;;4.03;;
30681;SDS011;17439;48.092;11.842;2023-08-24T13:11:13;5.65;;;3.85;;
30681;SDS011;17439;48.092;11.842;2023-08-24T13:13:40;8.60;;;3.30;;
30681;SDS011;17439;48.092;11.842;2023-08-24T13:16:06;9.83;;;3.73;;
30681;SDS011;17439;48.092;11.842;2023-08-24T13:18:33;10.65;;;4.50;;
30681;SDS011;17439;48.092;11.842;2023-08-24T13:21:00;16.83;;;3.60;;
30681;SDS011;17439;48.092;11.842;2023-08-24T13:23:26;8.60;;;4.00;;
30681;SDS011;17439;48.092;11.842;2023-08-24T13:25:53;8.88;;;4.60;;
30681;SDS011;17439;48.092;11.842;2023-08-24T13:28:20;5.67;;;3.70;;
30681;SDS011;17439;48.092;11.842;2023-08-24T13:30:47;9.73;;;4.47;;
30681;SDS011;17439;48.092;11.842;2023-08-24T13:33:13;12.13;;;4.32;;
30681;SDS011;17439;48.092;11.842;2023-08-24T13:35:40;11.10;;;4.75;;
30681;SDS011;17439;48.092;11.842;2023-08-24T13:38:08;10.18;;;4.55;;
30681;SDS011;17439;48.092;11.842;2023-08-24T13:40:34;10.10;;;4.63;;
30681;SDS011;17439;48.092;11.842;2023-08-24T13:43:01;4.83;;;3.93;;
30681;SDS011;17439;48.092;11.842;2023-08-24T13:45:28;8.47;;;4.47;;
30681;SDS011;17439;48.092;11.842;2023-08-24T13:47:54;9.75;;;4.05;;
30681;SDS011;17439;48.092;11.842;2023-08-24T13:50:21;6.20;;;4.03;;
30681;SDS011;17439;48.092;11.842;2023-08-24T13:52:49;4.63;;;3.60;;
30681;SDS011;17439;48.092;11.842;2023-08-24T13:55:16;5.68;;;4.43;;
30681;SDS011;17439;48.092;11.842;2023-08-24T13:57:43;9.20;;;4.30;;
30681;SDS011;17439;48.092;11.842;2023-08-24T14:00:10;10.80;;;3.78;;
30681;SDS011;17439;48.092;11.842;2023-08-24T14:02:39;9.18;;;4.25;;
30681;SDS011;17439;48.092;11.842;2023-08-24T14:05:06;10.00;;;4.05;;
30681;SDS011;17439;48.092;11.842;2023-08-24T14:07:33;11.65;;;4.60;;
30681;SDS011;17439;48.092;11.842;2023-08-24T14:10:00;9.97;;;4.17;;
30681;SDS011;17439;48.092;11.842;2023-08-24T14:12:32;9.20;;;3.50;;
30681;SDS011;17439;48.092;11.842;2023-08-24T14:14:59;6.40;;;3.72;;
30681;SDS011;17439;48.092;11.842;2023-08-24T14:17:26;12.85;;;3.50;;
30681;SDS011;17439;48.092;11.842;2023-08-24T14:19:53;6.75;;;3.95;;
30681;SDS011;17439;48.092;11.842;2023-08-24T14:22:20;8.15;;;3.33;;
30681;SDS011;17439;48.092;11.842;2023-08-24T14:24:47;13.00;;;3.67;;
30681;SDS011;17439;48.092;11.842;2023-08-24T14:27:13;17.17;;;4.57;;
30681;SDS011;17439;48.092;11.842;2023-08-24T14:29:40;9.00;;;4.47;;
30681;SDS011;17439;48.092;11.842;2023-08-24T14:32:07;9.73;;;4.13;;
30681;SDS011;17439;48.092;11.842;2023-08-24T14:34:34;10.00;;;5.72;;
30681;SDS011;17439;48.092;11.842;2023-08-24T14:37:01;8.15;;;3.35;;
30681;SDS011;17439;48.092;11.842;2023-08-24T14:39:27;10.90;;;4.80;;
30681;SDS011;17439;48.092;11.842;2023-08-24T14:41:54;13.20;;;4.18;;
30681;SDS011;17439;48.092;11.842;2023-08-24T14:44:21;8.68;;;3.35;;
30681;SDS011;17439;48.092;11.842;2023-08-24T14:46:47;12.30;;;4.28;;
30681;SDS011;17439;48.092;11.842;2023-08-24T14:49:14;6.95;;;3.47;;
30681;SDS011;17439;48.092;11.842;2023-08-24T14:51:41;9.07;;;4.25;;
30681;SDS011;17439;48.092;11.842;2023-08-24T14:54:08;7.70;;;3.17;;
30681;SDS011;17439;48.092;11.842;2023-08-24T14:56:34;10.20;;;4.37;;